sensor_id;sensor_type;location;lat;lon;timestamp;temperature;humidity
79491;SHT31;73788;53.048;18.472;2023-10-31T14:52:48;12.63;81.54
79491;SHT31;73788;53.048;18.472;2023-10-31T14:55:15;12.60;81.50
79491;SHT31;73788;53.048;18.472;2023-10-31T14:57:42;12.62;81.43
79491;SHT31;73788;53.048;18.472;2023-10-31T15:00:10;12.60;81.41
79491;SHT31;73788;53.048;18.472;2023-10-31T15:02:38;12.54;81.32
79491;SHT31;73788;53.048;18.472;2023-10-31T15:05:06;12.48;81.29
79491;SHT31;73788;53.048;18.472;2023-10-31T15:07:34;12.48;81.22
79491;SHT31;73788;53.048;18.472;2023-10-31T15:10:01;12.51;81.17
79491;SHT31;73788;53.048;18.472;2023-10-31T15:12:29;12.46;81.10
79491;SHT31;73788;53.048;18.472;2023-10-31T15:14:57;12.41;81.03
79491;SHT31;73788;53.048;18.472;2023-10-31T15:17:24;12.37;81.00
79491;SHT31;73788;53.048;18.472;2023-10-31T15:19:51;12.35;80.92
79491;SHT31;73788;53.048;18.472;2023-10-31T15:22:18;12.33;80.87
79491;SHT31;73788;53.048;18.472;2023-10-31T15:24:46;12.23;80.79
79491;SHT31;73788;53.048;18.472;2023-10-31T15:27:13;12.13;80.71
79491;SHT31;73788;53.048;18.472;2023-10-31T15:29:44;12.02;80.67
79491;SHT31;73788;53.048;18.472;2023-10-31T15:32:12;11.98;80.60
79491;SHT31;73788;53.048;18.472;2023-10-31T15:34:40;11.95;80.56
79491;SHT31;73788;53.048;18.472;2023-10-31T15:37:09;11.85;80.49
79491;SHT31;73788;53.048;18.472;2023-10-31T15:39:38;11.76;80.41
79491;SHT31;73788;53.048;18.472;2023-10-31T15:42:09;11.67;80.36
79491;SHT31;73788;53.048;18.472;2023-10-31T15:44:36;11.63;80.30
79491;SHT31;73788;53.048;18.472;2023-10-31T15:47:07;11.62;80.26
79491;SHT31;73788;53.048;18.472;2023-10-31T15:49:35;11.55;80.20
79491;SHT31;73788;53.048;18.472;2023-10-31T15:52:03;11.49;80.13
79491;SHT31;73788;53.048;18.472;2023-10-31T15:54:31;11.42;80.09
79491;SHT31;73788;53.048;18.472;2023-10-31T15:56:59;11.40;80.03
79491;SHT31;73788;53.048;18.472;2023-10-31T15:59:26;11.44;80.00
79491;SHT31;73788;53.048;18.472;2023-10-31T16:01:53;11.47;80.00
79491;SHT31;73788;53.048;18.472;2023-10-31T16:04:21;11.49;79.95
79491;SHT31;73788;53.048;18.472;2023-10-31T16:06:50;11.52;79.90
79491;SHT31;73788;53.048;18.472;2023-10-31T16:09:17;11.55;79.90
79491;SHT31;73788;53.048;18.472;2023-10-31T16:11:45;11.62;79.81
79491;SHT31;73788;53.048;18.472;2023-10-31T16:14:12;11.66;79.79
79491;SHT31;73788;53.048;18.472;2023-10-31T16:16:39;11.64;79.78
79491;SHT31;73788;53.048;18.472;2023-10-31T16:19:07;11.62;79.71
79491;SHT31;73788;53.048;18.472;2023-10-31T16:21:34;11.64;79.70
79491;SHT31;73788;53.048;18.472;2023-10-31T16:24:01;11.72;79.69
79491;SHT31;73788;53.048;18.472;2023-10-31T16:26:29;11.73;79.63
79491;SHT31;73788;53.048;18.472;2023-10-31T16:28:56;11.71;79.60
79491;SHT31;73788;53.048;18.472;2023-10-31T16:31:23;11.71;79.58
79491;SHT31;73788;53.048;18.472;2023-10-31T16:33:51;11.69;79.51
79491;SHT31;73788;53.048;18.472;2023-10-31T16:36:18;11.74;79.50
79491;SHT31;73788;53.048;18.472;2023-10-31T16:38:48;11.81;79.48
79491;SHT31;73788;53.048;18.472;2023-10-31T16:41:16;11.81;79.46
79491;SHT31;73788;53.048;18.472;2023-10-31T16:43:44;11.78;79.40
79491;SHT31;73788;53.048;18.472;2023-10-31T16:46:11;11.77;79.38
79491;SHT31;73788;53.048;18.472;2023-10-31T16:48:40;11.76;79.37
79491;SHT31;73788;53.048;18.472;2023-10-31T16:51:16;11.81;79.31
79491;SHT31;73788;53.048;18.472;2023-10-31T16:53:44;11.84;79.29
79491;SHT31;73788;53.048;18.472;2023-10-31T16:56:14;11.82;79.25
79491;SHT31;73788;53.048;18.472;2023-10-31T16:58:43;11.81;79.23
79491;SHT31;73788;53.048;18.472;2023-10-31T17:01:15;11.80;79.20
79491;SHT31;73788;53.048;18.472;2023-10-31T17:03:42;11.81;79.20
79491;SHT31;73788;53.048;18.472;2023-10-31T17:06:10;11.86;79.15
79491;SHT31;73788;53.048;18.472;2023-10-31T17:08:37;11.86;79.10
79491;SHT31;73788;53.048;18.472;2023-10-31T17:11:04;11.83;79.10
79491;SHT31;73788;53.048;18.472;2023-10-31T17:13:33;11.80;79.09
79491;SHT31;73788;53.048;18.472;2023-10-31T17:16:02;11.82;79.07
79491;SHT31;73788;53.048;18.472;2023-10-31T17:18:30;11.90;79.00
79491;SHT31;73788;53.048;18.472;2023-10-31T17:20:58;11.92;79.00
79491;SHT31;73788;53.048;18.472;2023-10-31T17:23:26;11.90;79.00
79491;SHT31;73788;53.048;18.472;2023-10-31T17:25:53;11.90;78.98
79491;SHT31;73788;53.048;18.472;2023-10-31T17:28:21;11.93;78.96
79491;SHT31;73788;53.048;18.472;2023-10-31T17:30:48;12.02;78.91
79491;SHT31;73788;53.048;18.472;2023-10-31T17:33:16;12.08;78.90
79491;SHT31;73788;53.048;18.472;2023-10-31T17:35:43;12.09;78.90
79491;SHT31;73788;53.048;18.472;2023-10-31T17:38:11;12.13;78.90
79491;SHT31;73788;53.048;18.472;2023-10-31T17:40:39;12.22;78.87
79491;SHT31;73788;53.048;18.472;2023-10-31T17:43:06;12.25;78.84
79491;SHT31;73788;53.048;18.472;2023-10-31T17:45:34;12.24;78.82
79491;SHT31;73788;53.048;18.472;2023-10-31T17:48:01;12.22;78.80
79491;SHT31;73788;53.048;18.472;2023-10-31T17:50:29;12.24;78.80
79491;SHT31;73788;53.048;18.472;2023-10-31T17:52:58;12.31;78.78
79491;SHT31;73788;53.048;18.472;2023-10-31T17:55:27;12.33;78.73
79491;SHT31;73788;53.048;18.472;2023-10-31T17:57:55;12.31;78.70
79491;SHT31;73788;53.048;18.472;2023-10-31T18:00:22;12.30;78.70
79491;SHT31;73788;53.048;18.472;2023-10-31T18:02:49;12.33;78.68
79491;SHT31;73788;53.048;18.472;2023-10-31T18:05:17;12.37;78.64
79491;SHT31;73788;53.048;18.472;2023-10-31T18:07:45;12.39;78.60
79491;SHT31;73788;53.048;18.472;2023-10-31T18:10:13;12.38;78.59
79491;SHT31;73788;53.048;18.472;2023-10-31T18:12:42;12.37;78.57
79491;SHT31;73788;53.048;18.472;2023-10-31T18:15:15;12.39;78.50
79491;SHT31;73788;53.048;18.472;2023-10-31T18:17:44;12.44;78.50
79491;SHT31;73788;53.048;18.472;2023-10-31T18:20:12;12.43;78.46
79491;SHT31;73788;53.048;18.472;2023-10-31T18:22:40;12.41;78.41
79491;SHT31;73788;53.048;18.472;2023-10-31T18:25:11;12.39;78.40
79491;SHT31;73788;53.048;18.472;2023-10-31T18:27:39;12.45;78.38
79491;SHT31;73788;53.048;18.472;2023-10-31T18:30:09;12.46;78.31
79491;SHT31;73788;53.048;18.472;2023-10-31T18:32:43;12.46;78.30
79491;SHT31;73788;53.048;18.472;2023-10-31T18:35:15;12.45;78.25
79491;SHT31;73788;53.048;18.472;2023-10-31T18:37:43;12.44;78.20
79491;SHT31;73788;53.048;18.472;2023-10-31T18:40:10;12.49;78.17
79491;SHT31;73788;53.048;18.472;2023-10-31T18:42:39;12.49;78.12
79491;SHT31;73788;53.048;18.472;2023-10-31T18:45:07;12.46;78.09
79491;SHT31;73788;53.048;18.472;2023-10-31T18:47:41;12.44;78.05
79491;SHT31;73788;53.048;18.472;2023-10-31T18:50:09;12.47;78.00
79491;SHT31;73788;53.048;18.472;2023-10-31T18:52:39;12.52;77.97
79491;SHT31;73788;53.048;18.472;2023-10-31T18:55:09;12.50;77.91
79491;SHT31;73788;53.048;18.472;2023-10-31T18:57:41;12.48;77.90
79491;SHT31;73788;53.048;18.472;2023-10-31T19:00:14;12.45;77.83
79491;SHT31;73788;53.048;18.472;2023-10-31T19:02:45;12.45;77.80
79491;SHT31;73788;53.048;18.472;2023-10-31T19:05:16;12.49;77.72
79491;SHT31;73788;53.048;18.472;2023-10-31T19:07:46;12.48;77.70
79491;SHT31;73788;53.048;18.472;2023-10-31T19:10:14;12.44;77.65
79491;SHT31;73788;53.048;18.472;2023-10-31T19:13:47;12.39;77.58
79491;SHT31;73788;53.048;18.472;2023-10-31T19:16:16;12.43;77.52
79491;SHT31;73788;53.048;18.472;2023-10-31T19:19:04;12.41;77.48
79491;SHT31;73788;53.048;18.472;2023-10-31T19:21:34;12.37;77.41
79491;SHT31;73788;53.048;18.472;2023-10-31T19:24:03;12.34;77.38
79491;SHT31;73788;53.048;18.472;2023-10-31T19:26:31;12.37;77.30
79491;SHT31;73788;53.048;18.472;2023-10-31T19:29:00;12.38;77.28
79491;SHT31;73788;53.048;18.472;2023-10-31T19:31:28;12.34;77.21
79491;SHT31;73788;53.048;18.472;2023-10-31T19:33:56;12.30;77.20
79491;SHT31;73788;53.048;18.472;2023-10-31T19:36:25;12.28;77.11
79491;SHT31;73788;53.048;18.472;2023-10-31T19:38:54;12.29;77.10
79491;SHT31;73788;53.048;18.472;2023-10-31T19:41:23;12.28;77.04
79491;SHT31;73788;53.048;18.472;2023-10-31T19:43:52;12.23;77.00
79491;SHT31;73788;53.048;18.472;2023-10-31T19:46:21;12.21;76.95
79491;SHT31;73788;53.048;18.472;2023-10-31T19:48:50;12.20;76.90
79491;SHT31;73788;53.048;18.472;2023-10-31T19:51:18;12.22;76.86
79491;SHT31;73788;53.048;18.472;2023-10-31T19:53:46;12.17;76.80
79491;SHT31;73788;53.048;18.472;2023-10-31T19:56:18;12.12;76.77
79491;SHT31;73788;53.048;18.472;2023-10-31T19:59:09;12.11;76.70
79491;SHT31;73788;53.048;18.472;2023-10-31T20:01:37;12.11;76.63
79491;SHT31;73788;53.048;18.472;2023-10-31T20:04:06;12.05;76.60
79491;SHT31;73788;53.048;18.472;2023-10-31T20:06:34;12.01;76.56
79491;SHT31;73788;53.048;18.472;2023-10-31T20:09:03;11.95;76.50
79491;SHT31;73788;53.048;18.472;2023-10-31T20:11:33;11.95;76.47
79491;SHT31;73788;53.048;18.472;2023-10-31T20:14:01;11.94;76.40
79491;SHT31;73788;53.048;18.472;2023-10-31T20:16:28;11.87;76.37
79491;SHT31;73788;53.048;18.472;2023-10-31T20:18:56;11.81;76.30
79491;SHT31;73788;53.048;18.472;2023-10-31T20:21:24;11.74;76.27
79491;SHT31;73788;53.048;18.472;2023-10-31T20:23:52;11.74;76.20
79491;SHT31;73788;53.048;18.472;2023-10-31T20:26:20;11.74;76.18
79491;SHT31;73788;53.048;18.472;2023-10-31T20:28:49;11.66;76.10
79491;SHT31;73788;53.048;18.472;2023-10-31T20:31:18;11.61;76.04
79491;SHT31;73788;53.048;18.472;2023-10-31T20:33:48;11.57;76.00
79491;SHT31;73788;53.048;18.472;2023-10-31T20:36:17;11.59;75.95
79491;SHT31;73788;53.048;18.472;2023-10-31T20:38:45;11.57;75.90
79491;SHT31;73788;53.048;18.472;2023-10-31T20:41:14;11.50;75.88
79491;SHT31;73788;53.048;18.472;2023-10-31T20:43:41;11.44;75.80
79491;SHT31;73788;53.048;18.472;2023-10-31T20:46:10;11.42;75.79
79491;SHT31;73788;53.048;18.472;2023-10-31T20:48:39;11.45;75.70
79491;SHT31;73788;53.048;18.472;2023-10-31T20:51:06;11.46;75.70
79491;SHT31;73788;53.048;18.472;2023-10-31T20:53:35;11.43;75.61
79491;SHT31;73788;53.048;18.472;2023-10-31T20:56:06;11.39;75.60
79491;SHT31;73788;53.048;18.472;2023-10-31T20:58:35;11.36;75.53
79491;SHT31;73788;53.048;18.472;2023-10-31T21:01:02;11.35;75.50
79491;SHT31;73788;53.048;18.472;2023-10-31T21:03:30;11.39;75.45
79491;SHT31;73788;53.048;18.472;2023-10-31T21:05:58;11.38;75.40
79491;SHT31;73788;53.048;18.472;2023-10-31T21:08:25;11.33;75.40
79491;SHT31;73788;53.048;18.472;2023-10-31T21:10:53;11.30;75.33
79491;SHT31;73788;53.048;18.472;2023-10-31T21:13:22;11.29;75.30
79491;SHT31;73788;53.048;18.472;2023-10-31T21:15:51;11.31;75.28
79491;SHT31;73788;53.048;18.472;2023-10-31T21:18:19;11.29;75.22
79491;SHT31;73788;53.048;18.472;2023-10-31T21:20:47;11.26;75.20
79491;SHT31;73788;53.048;18.472;2023-10-31T21:23:14;11.21;75.19
79491;SHT31;73788;53.048;18.472;2023-10-31T21:25:44;11.19;75.14
79491;SHT31;73788;53.048;18.472;2023-10-31T21:28:13;11.22;75.10
79491;SHT31;73788;53.048;18.472;2023-10-31T21:30:42;11.18;75.10
79491;SHT31;73788;53.048;18.472;2023-10-31T21:33:09;11.10;75.02
79491;SHT31;73788;53.048;18.472;2023-10-31T21:35:37;11.04;75.00
79491;SHT31;73788;53.048;18.472;2023-10-31T21:38:05;10.96;75.00
79491;SHT31;73788;53.048;18.472;2023-10-31T21:40:32;10.90;74.98
79491;SHT31;73788;53.048;18.472;2023-10-31T21:43:00;10.86;74.91
79491;SHT31;73788;53.048;18.472;2023-10-31T21:45:29;10.80;74.90
79491;SHT31;73788;53.048;18.472;2023-10-31T21:47:56;10.74;74.90
79491;SHT31;73788;53.048;18.472;2023-10-31T21:50:25;10.67;74.88
79491;SHT31;73788;53.048;18.472;2023-10-31T21:52:54;10.65;74.81
79491;SHT31;73788;53.048;18.472;2023-10-31T21:55:23;10.63;74.80
79491;SHT31;73788;53.048;18.472;2023-10-31T21:57:51;10.57;74.80
79491;SHT31;73788;53.048;18.472;2023-10-31T22:00:20;10.55;74.80
79491;SHT31;73788;53.048;18.472;2023-10-31T22:02:47;10.55;74.79
79491;SHT31;73788;53.048;18.472;2023-10-31T22:05:17;10.58;74.78
79491;SHT31;73788;53.048;18.472;2023-10-31T22:07:45;10.63;74.74
79491;SHT31;73788;53.048;18.472;2023-10-31T22:10:13;10.65;74.72
79491;SHT31;73788;53.048;18.472;2023-10-31T22:12:40;10.63;74.70
79491;SHT31;73788;53.048;18.472;2023-10-31T22:15:08;10.61;74.70
79491;SHT31;73788;53.048;18.472;2023-10-31T22:17:36;10.57;74.70
79491;SHT31;73788;53.048;18.472;2023-10-31T22:20:05;10.58;74.70
79491;SHT31;73788;53.048;18.472;2023-10-31T22:22:34;10.59;74.68
79491;SHT31;73788;53.048;18.472;2023-10-31T22:25:01;10.52;74.69
79491;SHT31;73788;53.048;18.472;2023-10-31T22:27:29;10.43;74.60
79491;SHT31;73788;53.048;18.472;2023-10-31T22:29:57;10.36;74.60
79491;SHT31;73788;53.048;18.472;2023-10-31T22:32:25;10.27;74.60
79491;SHT31;73788;53.048;18.472;2023-10-31T22:34:53;10.23;74.59
79491;SHT31;73788;53.048;18.472;2023-10-31T22:37:20;10.15;74.58
79491;SHT31;73788;53.048;18.472;2023-10-31T22:39:47;10.04;74.51
79491;SHT31;73788;53.048;18.472;2023-10-31T22:42:15;9.96;74.50
79491;SHT31;73788;53.048;18.472;2023-10-31T22:44:42;9.87;74.50
79491;SHT31;73788;53.048;18.472;2023-10-31T22:47:10;9.86;74.50
79491;SHT31;73788;53.048;18.472;2023-10-31T22:49:37;9.85;74.49
79491;SHT31;73788;53.048;18.472;2023-10-31T22:52:05;9.80;74.44
79491;SHT31;73788;53.048;18.472;2023-10-31T22:54:32;9.80;74.44
79491;SHT31;73788;53.048;18.472;2023-10-31T22:56:59;9.81;74.45
79491;SHT31;73788;53.048;18.472;2023-10-31T22:59:27;9.87;74.42
79491;SHT31;73788;53.048;18.472;2023-10-31T23:01:54;9.95;74.41
79491;SHT31;73788;53.048;18.472;2023-10-31T23:04:22;9.94;74.42
79491;SHT31;73788;53.048;18.472;2023-10-31T23:06:50;9.91;74.40
79491;SHT31;73788;53.048;18.472;2023-10-31T23:09:20;9.83;74.40
79491;SHT31;73788;53.048;18.472;2023-10-31T23:11:47;9.76;74.39
79491;SHT31;73788;53.048;18.472;2023-10-31T23:14:15;9.76;74.38
79491;SHT31;73788;53.048;18.472;2023-10-31T23:16:43;9.70;74.37
79491;SHT31;73788;53.048;18.472;2023-10-31T23:19:10;9.61;74.31
79491;SHT31;73788;53.048;18.472;2023-10-31T23:21:37;9.51;74.30
79491;SHT31;73788;53.048;18.472;2023-10-31T23:24:05;9.47;74.30
79491;SHT31;73788;53.048;18.472;2023-10-31T23:26:33;9.48;74.30
79491;SHT31;73788;53.048;18.472;2023-10-31T23:29:00;9.46;74.30
79491;SHT31;73788;53.048;18.472;2023-10-31T23:31:28;9.46;74.30
79491;SHT31;73788;53.048;18.472;2023-10-31T23:33:55;9.44;74.30
79491;SHT31;73788;53.048;18.472;2023-10-31T23:36:23;9.45;74.30
79491;SHT31;73788;53.048;18.472;2023-10-31T23:38:50;9.51;74.30
79491;SHT31;73788;53.048;18.472;2023-10-31T23:41:17;9.56;74.30
79491;SHT31;73788;53.048;18.472;2023-10-31T23:43:44;9.55;74.31
79491;SHT31;73788;53.048;18.472;2023-10-31T23:46:12;9.56;74.32
79491;SHT31;73788;53.048;18.472;2023-10-31T23:48:39;9.62;74.37
79491;SHT31;73788;53.048;18.472;2023-10-31T23:51:06;9.67;74.37
79491;SHT31;73788;53.048;18.472;2023-10-31T23:53:34;9.65;74.38
79491;SHT31;73788;53.048;18.472;2023-10-31T23:56:01;9.61;74.39
79491;SHT31;73788;53.048;18.472;2023-10-31T23:58:29;9.57;74.40
